createdAt,value
2022-12-18T00:00:14.178Z,33.33
2022-12-18T00:02:16.988Z,31.83
2022-12-18T00:04:23.055Z,30.98
2022-12-18T00:06:27.148Z,29.38
2022-12-18T00:08:31.110Z,28.63
2022-12-18T00:10:33.699Z,29.73
2022-12-18T00:12:36.333Z,28.75
2022-12-18T00:14:38.956Z,29.05
2022-12-18T00:16:46.201Z,28.15
2022-12-18T00:18:49.313Z,28.83
2022-12-18T00:20:51.935Z,29.50
2022-12-18T00:22:54.633Z,27.90
2022-12-18T00:24:58.575Z,29.75
2022-12-18T00:27:01.243Z,28.83
2022-12-18T00:29:06.589Z,29.88
2022-12-18T00:31:11.223Z,29.35
2022-12-18T00:33:13.914Z,28.23
2022-12-18T00:35:16.578Z,29.15
2022-12-18T00:37:20.466Z,29.50
2022-12-18T00:39:23.265Z,30.67
2022-12-18T00:41:45.729Z,29.17
2022-12-18T00:43:48.368Z,29.60
2022-12-18T00:45:51.030Z,29.30
2022-12-18T00:47:53.744Z,29.83
2022-12-18T00:49:56.356Z,27.13
2022-12-18T00:51:58.968Z,30.75
2022-12-18T00:54:01.925Z,28.70
2022-12-18T00:56:04.777Z,28.52
2022-12-18T00:58:08.854Z,30.42
2022-12-18T01:00:14.824Z,29.92
2022-12-18T01:02:17.503Z,27.70
2022-12-18T01:04:20.453Z,30.40
2022-12-18T01:06:23.101Z,30.23
2022-12-18T01:08:25.703Z,29.00
2022-12-18T01:10:28.480Z,28.88
2022-12-18T01:12:31.070Z,29.55
2022-12-18T01:14:35.083Z,31.02
2022-12-18T01:16:37.787Z,28.42
2022-12-18T01:18:40.941Z,30.77
2022-12-18T01:20:43.606Z,27.40
2022-12-18T01:22:46.256Z,29.92
2022-12-18T01:24:48.888Z,27.92
2022-12-18T01:26:51.523Z,27.38
2022-12-18T01:28:56.137Z,25.77
2022-12-18T01:31:10.624Z,28.67
2022-12-18T01:33:13.210Z,26.80
2022-12-18T01:35:15.918Z,27.40
2022-12-18T01:37:18.551Z,28.50
2022-12-18T01:39:21.429Z,28.23
2022-12-18T01:41:26.587Z,27.10
2022-12-18T01:43:46.888Z,25.92
2022-12-18T01:45:49.609Z,26.80
2022-12-18T01:47:55.327Z,27.42
2022-12-18T01:50:00.616Z,27.65
2022-12-18T01:52:03.320Z,27.05
2022-12-18T01:54:06.033Z,25.88
2022-12-18T01:56:09.228Z,25.92
2022-12-18T01:58:12.154Z,26.42
2022-12-18T02:00:18.054Z,25.63
2022-12-18T02:02:22.013Z,25.60
2022-12-18T02:04:27.789Z,26.55
2022-12-18T02:06:36.516Z,26.60
2022-12-18T02:08:49.915Z,26.00
2022-12-18T02:11:06.986Z,25.90
2022-12-18T02:13:16.337Z,26.85
2022-12-18T02:15:26.292Z,26.73
2022-12-18T02:17:36.911Z,26.17
2022-12-18T02:19:49.696Z,27.83
2022-12-18T02:22:00.124Z,26.95
2022-12-18T02:24:17.887Z,27.95
2022-12-18T02:26:28.284Z,28.73
2022-12-18T02:28:38.040Z,27.92
2022-12-18T02:30:43.218Z,28.92
2022-12-18T02:32:50.810Z,27.00
2022-12-18T02:34:56.498Z,25.98
2022-12-18T02:37:02.464Z,26.83
2022-12-18T02:39:08.290Z,28.60
2022-12-18T02:41:12.928Z,26.30
2022-12-18T02:43:17.893Z,28.30
2022-12-18T02:45:20.711Z,27.13
2022-12-18T02:47:26.093Z,28.13
2022-12-18T02:49:37.723Z,26.83
2022-12-18T02:53:55.433Z,24.88
2022-12-18T02:56:08.561Z,27.08
2022-12-18T02:58:17.710Z,27.15
2022-12-18T03:00:25.142Z,25.42
2022-12-18T03:02:35.049Z,25.58
2022-12-18T03:04:45.716Z,28.45
2022-12-18T03:06:52.302Z,25.70
2022-12-18T03:09:00.476Z,25.75
2022-12-18T03:11:05.991Z,27.10
2022-12-18T03:13:14.005Z,27.05
2022-12-18T03:15:20.687Z,27.25
2022-12-18T03:17:27.117Z,28.00
2022-12-18T03:19:33.429Z,30.25
2022-12-18T03:21:41.039Z,28.65
2022-12-18T03:23:49.448Z,30.40
2022-12-18T03:25:56.330Z,32.05
2022-12-18T03:28:03.385Z,29.80
2022-12-18T03:30:09.191Z,29.38
2022-12-18T03:32:14.264Z,30.23
2022-12-18T03:34:24.663Z,29.40
2022-12-18T03:36:27.708Z,29.20
2022-12-18T03:38:30.370Z,29.77
2022-12-18T03:40:42.615Z,29.60
2022-12-18T03:42:50.715Z,27.38
2022-12-18T03:44:59.830Z,28.50
2022-12-18T03:47:09.840Z,27.17
2022-12-18T03:49:16.657Z,28.17
2022-12-18T03:51:27.308Z,28.08
2022-12-18T03:53:37.586Z,28.30
2022-12-18T03:55:41.547Z,27.52
2022-12-18T03:57:46.270Z,26.60
2022-12-18T03:59:52.530Z,26.38
2022-12-18T04:01:57.504Z,26.33
2022-12-18T04:04:02.309Z,25.75
2022-12-18T04:06:06.542Z,26.40
2022-12-18T04:08:10.713Z,25.40
2022-12-18T04:10:14.416Z,26.92
2022-12-18T04:12:17.158Z,28.02
2022-12-18T04:14:19.766Z,28.88
2022-12-18T04:16:22.375Z,28.77
2022-12-18T04:18:25.033Z,27.15
2022-12-18T04:20:27.651Z,26.35
2022-12-18T04:22:30.300Z,26.13
2022-12-18T04:24:34.327Z,26.05
2022-12-18T04:26:36.983Z,26.92
2022-12-18T04:28:39.642Z,25.30
2022-12-18T04:30:42.261Z,26.17
2022-12-18T04:32:50.498Z,26.38
2022-12-18T04:34:54.761Z,25.63
2022-12-18T04:36:57.369Z,25.75
2022-12-18T04:39:00.262Z,23.90
2022-12-18T04:41:04.281Z,23.60
2022-12-18T04:43:07.427Z,23.95
2022-12-18T04:45:11.024Z,25.00
2022-12-18T04:47:13.606Z,24.40
2022-12-18T04:49:19.054Z,26.65
2022-12-18T04:51:26.427Z,26.38
2022-12-18T04:53:29.479Z,26.02
2022-12-18T04:55:32.158Z,27.05
2022-12-18T04:57:36.217Z,25.30
2022-12-18T04:59:38.816Z,26.88
2022-12-18T05:01:41.480Z,25.17
2022-12-18T05:03:45.399Z,25.08
2022-12-18T05:05:51.439Z,25.90
2022-12-18T05:07:54.496Z,23.35
2022-12-18T05:09:59.934Z,25.38
2022-12-18T05:12:02.526Z,27.40
2022-12-18T05:14:09.212Z,25.67
2022-12-18T05:16:12.313Z,25.73
2022-12-18T05:18:14.971Z,26.77
2022-12-18T05:20:19.112Z,27.33
2022-12-18T05:22:21.724Z,24.75
2022-12-18T05:24:24.398Z,27.33
2022-12-18T05:26:27.006Z,27.10
2022-12-18T05:28:32.037Z,25.05
2022-12-18T05:30:36.195Z,26.85
2022-12-18T05:32:39.363Z,24.98
2022-12-18T05:34:41.970Z,25.77
2022-12-18T05:36:44.756Z,25.65
2022-12-18T05:38:47.596Z,25.05
2022-12-18T05:40:50.627Z,25.60
2022-12-18T05:42:53.223Z,25.48
2022-12-18T05:44:55.814Z,26.50
2022-12-18T05:46:59.899Z,26.15
2022-12-18T05:49:02.781Z,25.65
2022-12-18T05:51:07.906Z,26.75
2022-12-18T05:53:11.600Z,24.92
2022-12-18T05:55:14.242Z,25.38
2022-12-18T05:57:17.211Z,25.13
2022-12-18T05:59:19.810Z,24.55
2022-12-18T06:01:24.861Z,25.80
2022-12-18T06:03:33.727Z,24.52
2022-12-18T06:05:38.163Z,23.70
2022-12-18T06:07:41.041Z,24.30
2022-12-18T06:09:43.737Z,23.38
2022-12-18T06:11:46.316Z,24.58
2022-12-18T06:13:57.640Z,24.60
2022-12-18T06:16:04.141Z,19.33
2022-12-18T06:18:06.950Z,24.85
2022-12-18T06:20:11.765Z,26.20
2022-12-18T06:22:14.319Z,25.38
2022-12-18T06:24:17.259Z,27.55
2022-12-18T06:26:24.634Z,27.17
2022-12-18T06:28:30.404Z,26.27
2022-12-18T06:30:32.983Z,29.35
2022-12-18T06:32:35.827Z,27.05
2022-12-18T06:34:39.798Z,27.58
2022-12-18T06:36:43.726Z,26.17
2022-12-18T06:38:46.470Z,24.98
2022-12-18T06:40:49.050Z,33.83
2022-12-18T06:42:51.638Z,33.88
2022-12-18T06:44:54.643Z,33.83
2022-12-18T06:46:57.382Z,35.75
2022-12-18T06:48:59.994Z,38.17
2022-12-18T06:51:03.407Z,28.17
2022-12-18T06:53:07.475Z,25.40
2022-12-18T06:55:10.455Z,26.23
2022-12-18T06:57:13.187Z,26.85
2022-12-18T06:59:16.641Z,24.42
2022-12-18T07:01:19.424Z,25.00
2022-12-18T07:03:22.070Z,23.80
2022-12-18T07:05:26.654Z,22.42
2022-12-18T07:07:29.275Z,25.13
2022-12-18T07:09:33.251Z,23.00
2022-12-18T07:11:36.006Z,25.45
2022-12-18T07:13:38.979Z,24.33
2022-12-18T07:15:41.875Z,26.02
2022-12-18T07:17:45.570Z,24.95
2022-12-18T07:19:48.206Z,25.20
2022-12-18T07:21:51.825Z,24.85
2022-12-18T07:23:54.891Z,23.98
2022-12-18T07:26:03.119Z,24.88
2022-12-18T07:28:07.039Z,25.85
2022-12-18T07:30:11.473Z,25.50
2022-12-18T07:32:14.111Z,25.90
2022-12-18T07:34:17.004Z,26.02
2022-12-18T07:36:20.171Z,22.98
2022-12-18T07:38:23.780Z,26.20
2022-12-18T07:40:26.399Z,24.48
2022-12-18T07:42:33.102Z,24.95
2022-12-18T07:44:35.735Z,25.27
2022-12-18T07:46:38.390Z,24.75
2022-12-18T07:48:41.093Z,24.13
2022-12-18T07:50:43.712Z,24.52
2022-12-18T07:52:46.297Z,23.83
2022-12-18T07:54:50.919Z,25.90
2022-12-18T07:56:53.976Z,24.48
2022-12-18T07:58:57.939Z,23.90
2022-12-18T08:01:05.340Z,24.25
2022-12-18T08:03:09.018Z,23.27
2022-12-18T08:05:11.810Z,23.73
2022-12-18T08:07:15.055Z,23.85
2022-12-18T08:09:17.752Z,22.98
2022-12-18T08:11:20.345Z,24.63
2022-12-18T08:13:24.173Z,24.02
2022-12-18T08:15:28.108Z,24.98
2022-12-18T08:17:30.726Z,24.33
2022-12-18T08:19:33.349Z,25.33
2022-12-18T08:21:35.972Z,25.23
2022-12-18T08:23:42.654Z,26.50
2022-12-18T08:25:46.005Z,29.30
2022-12-18T08:27:48.636Z,27.35
2022-12-18T08:29:51.273Z,28.02
2022-12-18T08:31:55.300Z,28.98
2022-12-18T08:33:58.583Z,27.00
2022-12-18T08:36:02.259Z,27.05
2022-12-18T08:38:05.043Z,26.33
2022-12-18T08:40:09.511Z,25.23
2022-12-18T08:42:29.865Z,25.77
2022-12-18T08:44:42.187Z,25.23
2022-12-18T08:46:45.886Z,25.35
2022-12-18T08:48:50.273Z,26.38
2022-12-18T08:50:57.115Z,24.92
2022-12-18T08:52:59.755Z,26.33
2022-12-18T08:55:02.485Z,26.25
2022-12-18T08:57:05.249Z,23.77
2022-12-18T08:59:07.846Z,26.10
2022-12-18T09:01:14.591Z,25.25
2022-12-18T09:03:18.946Z,25.83
2022-12-18T09:05:22.996Z,25.73
2022-12-18T09:07:25.637Z,26.50
2022-12-18T09:09:28.260Z,26.40
2022-12-18T09:11:31.558Z,28.48
2022-12-18T09:13:34.185Z,30.85
2022-12-18T09:15:41.748Z,29.00
2022-12-18T09:17:44.662Z,31.08
2022-12-18T09:19:47.349Z,30.90
2022-12-18T09:21:51.306Z,31.42
2022-12-18T09:23:54.764Z,29.88
2022-12-18T09:26:00.790Z,28.48
2022-12-18T09:28:03.902Z,30.05
2022-12-18T09:30:07.990Z,30.63
2022-12-18T09:32:10.590Z,29.08
2022-12-18T09:34:13.188Z,29.65
2022-12-18T09:36:18.571Z,30.48
2022-12-18T09:38:24.091Z,31.42
2022-12-18T09:40:31.034Z,31.90
2022-12-18T09:42:34.075Z,33.50
2022-12-18T09:44:45.003Z,30.30
2022-12-18T09:46:54.394Z,29.58
2022-12-18T09:49:01.640Z,30.83
2022-12-18T09:51:11.362Z,32.25
2022-12-18T09:53:19.443Z,30.52
2022-12-18T09:55:32.172Z,30.42
2022-12-18T09:57:44.702Z,29.95
2022-12-18T09:59:52.061Z,30.60
2022-12-18T10:01:55.068Z,31.45
2022-12-18T10:03:58.292Z,30.30
2022-12-18T10:06:09.214Z,31.02
2022-12-18T10:08:17.989Z,31.35
2022-12-18T10:10:29.523Z,31.98
2022-12-18T10:14:47.537Z,32.35
2022-12-18T10:17:01.509Z,32.03
2022-12-18T10:19:20.791Z,32.70
2022-12-18T10:21:32.253Z,32.58
2022-12-18T10:23:45.045Z,34.53
2022-12-18T10:25:58.081Z,35.25
2022-12-18T10:28:11.936Z,39.35
2022-12-18T10:30:16.887Z,36.35
2022-12-18T10:32:22.141Z,37.15
2022-12-18T10:34:25.842Z,38.25
2022-12-18T10:36:28.701Z,36.83
2022-12-18T10:38:32.912Z,38.08
2022-12-18T10:40:50.252Z,36.90
2022-12-18T10:43:06.818Z,36.40
2022-12-18T10:45:12.588Z,37.63
2022-12-18T10:47:20.131Z,38.00
2022-12-18T10:49:28.671Z,35.38
2022-12-18T10:51:34.487Z,35.58
2022-12-18T10:53:39.472Z,34.97
2022-12-18T10:55:47.963Z,38.55
2022-12-18T10:57:50.641Z,36.35
2022-12-18T10:59:56.691Z,35.97
2022-12-18T11:02:00.408Z,34.80
2022-12-18T11:04:10.563Z,37.92
2022-12-18T11:06:15.515Z,38.78
2022-12-18T11:08:23.781Z,37.50
2022-12-18T11:10:32.038Z,37.40
2022-12-18T11:12:34.678Z,38.05
2022-12-18T11:14:47.360Z,39.03
2022-12-18T11:19:28.186Z,39.83
2022-12-18T11:21:30.853Z,41.05
2022-12-18T11:23:33.672Z,40.03
2022-12-18T11:25:36.716Z,41.33
2022-12-18T11:27:40.555Z,41.70
2022-12-18T11:29:46.616Z,41.03
2022-12-18T11:31:51.000Z,42.95
2022-12-18T11:34:28.033Z,42.40
2022-12-18T11:36:30.660Z,41.95
2022-12-18T11:38:36.346Z,44.22
2022-12-18T11:40:42.152Z,41.53
2022-12-18T11:42:50.129Z,42.75
2022-12-18T11:44:57.153Z,40.70
2022-12-18T11:47:05.595Z,40.90
2022-12-18T11:49:15.484Z,41.67
2022-12-18T11:51:27.373Z,39.63
2022-12-18T11:53:31.864Z,42.03
2022-12-18T11:55:53.088Z,43.05
2022-12-18T11:58:01.896Z,40.75
2022-12-18T12:00:15.912Z,42.08
2022-12-18T12:02:43.603Z,41.33
2022-12-18T12:04:58.258Z,41.88
2022-12-18T12:07:13.748Z,41.08
2022-12-18T12:09:26.150Z,42.75
2022-12-18T12:11:37.118Z,41.08
2022-12-18T12:13:49.016Z,42.00
2022-12-18T12:16:02.192Z,42.78
2022-12-18T12:18:15.239Z,43.25
2022-12-18T12:20:22.680Z,44.67
2022-12-18T12:22:35.403Z,43.92
2022-12-18T12:24:48.099Z,46.85
2022-12-18T12:26:59.775Z,44.10
2022-12-18T12:31:22.139Z,45.17
2022-12-18T12:33:36.184Z,46.03
2022-12-18T12:35:49.461Z,45.92
2022-12-18T12:38:07.214Z,44.22
2022-12-18T12:40:49.182Z,42.42
2022-12-18T12:43:01.942Z,43.97
2022-12-18T12:45:08.786Z,44.08
2022-12-18T12:47:16.993Z,43.70
2022-12-18T12:49:25.603Z,42.55
2022-12-18T12:51:30.947Z,44.85
2022-12-18T12:53:38.870Z,45.65
2022-12-18T12:55:44.419Z,43.90
2022-12-18T12:57:58.092Z,42.63
2022-12-18T13:00:05.670Z,42.55
2022-12-18T13:02:16.988Z,42.45
2022-12-18T13:04:29.105Z,41.30
2022-12-18T13:06:44.685Z,38.92
2022-12-18T13:08:58.089Z,42.33
2022-12-18T13:11:15.616Z,44.38
2022-12-18T13:13:23.626Z,45.10
2022-12-18T13:15:32.677Z,42.63
2022-12-18T13:17:39.311Z,43.05
2022-12-18T13:19:43.883Z,41.20
2022-12-18T13:21:55.732Z,40.10
2022-12-18T13:24:16.131Z,40.97
2022-12-18T13:26:36.863Z,43.10
2022-12-18T13:28:54.819Z,40.45
2022-12-18T13:30:59.278Z,43.55
2022-12-18T13:33:51.051Z,41.75
2022-12-18T13:36:15.429Z,39.95
2022-12-18T13:38:23.843Z,41.08
2022-12-18T13:41:00.167Z,41.70
2022-12-18T13:43:14.737Z,40.38
2022-12-18T13:45:43.624Z,43.22
2022-12-18T13:47:47.657Z,41.00
2022-12-18T13:49:50.312Z,40.40
2022-12-18T13:51:56.721Z,40.97
2022-12-18T13:54:01.963Z,38.13
2022-12-18T13:56:05.603Z,39.38
2022-12-18T13:58:08.530Z,38.55
2022-12-18T14:00:27.093Z,37.60
2022-12-18T14:02:30.621Z,38.53
2022-12-18T14:04:35.141Z,36.85
2022-12-18T14:06:38.482Z,40.05
2022-12-18T14:08:45.296Z,39.00
2022-12-18T14:10:50.426Z,41.55
2022-12-18T14:13:00.345Z,41.30
2022-12-18T14:15:12.169Z,38.72
2022-12-18T14:17:16.501Z,40.03
2022-12-18T14:19:20.559Z,44.03
2022-12-18T14:21:27.016Z,47.88
2022-12-18T14:23:35.718Z,44.35
2022-12-18T14:25:39.642Z,46.20
2022-12-18T14:27:45.256Z,48.65
2022-12-18T14:29:48.060Z,45.95
2022-12-18T14:32:06.955Z,39.63
2022-12-18T14:34:17.321Z,40.47
2022-12-18T14:36:22.422Z,40.88
2022-12-18T14:38:29.013Z,43.17
2022-12-18T14:40:31.636Z,43.60
2022-12-18T14:42:36.037Z,44.20
2022-12-18T14:44:50.683Z,43.90
2022-12-18T14:47:00.340Z,42.95
2022-12-18T14:49:05.381Z,45.20
2022-12-18T14:51:17.174Z,43.13
2022-12-18T14:53:25.531Z,43.88
2022-12-18T14:55:28.416Z,45.17
2022-12-18T14:57:38.764Z,43.22
2022-12-18T14:59:41.465Z,44.28
2022-12-18T15:01:49.891Z,44.83
2022-12-18T15:03:53.334Z,45.30
2022-12-18T15:05:56.419Z,44.33
2022-12-18T15:08:01.599Z,43.67
2022-12-18T15:10:12.158Z,43.42
2022-12-18T15:12:36.849Z,45.15
2022-12-18T15:14:42.595Z,45.33
2022-12-18T15:16:46.310Z,43.42
2022-12-18T15:18:49.732Z,42.95
2022-12-18T15:20:55.803Z,41.78
2022-12-18T15:22:58.430Z,41.38
2022-12-18T15:25:01.769Z,41.45
2022-12-18T15:27:04.802Z,42.83
2022-12-18T15:29:22.040Z,40.08
2022-12-18T15:31:32.489Z,40.38
2022-12-18T15:33:39.611Z,41.90
2022-12-18T15:35:46.971Z,42.30
2022-12-18T15:37:50.676Z,42.78
2022-12-18T15:39:53.292Z,41.47
2022-12-18T15:42:13.605Z,41.33
2022-12-18T15:44:26.479Z,43.92
2022-12-18T15:46:29.359Z,44.40
2022-12-18T15:48:33.886Z,43.67
2022-12-18T15:50:36.673Z,40.15
2022-12-18T15:52:43.177Z,43.53
2022-12-18T15:55:03.256Z,40.97
2022-12-18T15:57:23.263Z,40.13
2022-12-18T15:59:27.613Z,40.83
2022-12-18T16:01:32.552Z,41.67
2022-12-18T16:03:35.284Z,42.20
2022-12-18T16:05:38.158Z,39.95
2022-12-18T16:07:40.838Z,37.85
2022-12-18T16:09:43.820Z,39.80
2022-12-18T16:11:48.778Z,42.38
2022-12-18T16:13:51.360Z,39.85
2022-12-18T16:15:55.698Z,41.97
2022-12-18T16:17:58.314Z,39.58
2022-12-18T16:20:01.098Z,39.40
2022-12-18T16:22:03.827Z,38.60
2022-12-18T16:24:06.957Z,38.25
2022-12-18T16:26:09.583Z,35.40
2022-12-18T16:28:12.226Z,34.33
2022-12-18T16:30:16.412Z,32.70
2022-12-18T16:32:23.413Z,31.75
2022-12-18T16:34:29.262Z,30.05
2022-12-18T16:36:32.277Z,30.90
2022-12-18T16:38:34.846Z,26.67
2022-12-18T16:40:57.586Z,25.33
2022-12-18T16:43:00.280Z,23.70
2022-12-18T16:45:02.916Z,24.92
2022-12-18T16:47:05.797Z,23.80
2022-12-18T16:49:12.226Z,24.05
2022-12-18T16:51:14.892Z,24.63
2022-12-18T16:53:17.507Z,25.30
2022-12-18T16:55:20.344Z,24.45
2022-12-18T16:57:25.217Z,24.48
2022-12-18T16:59:29.197Z,23.58
2022-12-18T17:01:33.762Z,25.05
2022-12-18T17:03:36.540Z,23.52
2022-12-18T17:05:40.665Z,25.08
2022-12-18T17:07:43.271Z,23.42
2022-12-18T17:09:45.972Z,25.55
2022-12-18T17:11:48.623Z,23.85
2022-12-18T17:13:51.284Z,24.92
2022-12-18T17:15:54.189Z,24.52
2022-12-18T17:17:57.445Z,25.35
2022-12-18T17:20:00.033Z,24.02
2022-12-18T17:22:04.808Z,25.17
2022-12-18T17:24:07.796Z,26.50
2022-12-18T17:26:11.239Z,29.75
2022-12-18T17:28:13.907Z,32.67
2022-12-18T17:30:16.606Z,39.30
2022-12-18T17:32:19.306Z,43.78
2022-12-18T17:34:22.039Z,50.25
2022-12-18T17:36:25.119Z,45.92
2022-12-18T17:38:29.047Z,56.10
2022-12-18T17:40:33.694Z,53.03
2022-12-18T17:42:36.303Z,55.20
2022-12-18T17:44:39.255Z,56.13
2022-12-18T17:46:42.148Z,54.95
2022-12-18T17:48:44.831Z,56.33
2022-12-18T17:50:47.445Z,60.80
2022-12-18T17:52:50.016Z,62.53
2022-12-18T17:54:53.977Z,60.78
2022-12-18T17:56:56.713Z,58.22
2022-12-18T17:58:59.466Z,60.80
2022-12-18T18:01:02.262Z,56.05
2022-12-18T18:03:05.259Z,57.92
2022-12-18T18:05:08.377Z,54.92
2022-12-18T18:07:13.730Z,55.03
2022-12-18T18:09:17.249Z,50.58
2022-12-18T18:11:41.030Z,50.03
2022-12-18T18:14:01.890Z,46.17
2022-12-18T18:16:04.554Z,45.95
2022-12-18T18:18:07.147Z,46.58
2022-12-18T18:20:10.941Z,48.92
2022-12-18T18:22:13.633Z,45.17
2022-12-18T18:24:19.304Z,52.70
2022-12-18T18:26:23.268Z,49.85
2022-12-18T18:28:29.250Z,51.08
2022-12-18T18:30:31.866Z,49.05
2022-12-18T18:32:38.079Z,50.40
2022-12-18T18:34:40.872Z,46.88
2022-12-18T18:36:45.444Z,45.60
2022-12-18T18:38:48.683Z,46.30
2022-12-18T18:40:59.451Z,44.50
2022-12-18T18:43:03.448Z,43.72
2022-12-18T18:45:08.754Z,45.55
2022-12-18T18:47:11.363Z,44.00
2022-12-18T18:49:14.694Z,43.47
2022-12-18T18:51:21.123Z,44.65
2022-12-18T18:53:24.403Z,41.95
2022-12-18T18:55:27.043Z,43.65
2022-12-18T18:57:30.699Z,41.40
2022-12-18T18:59:34.805Z,44.85
2022-12-18T19:01:37.560Z,44.63
2022-12-18T19:03:40.834Z,43.90
2022-12-18T19:05:47.528Z,44.58
2022-12-18T19:07:50.312Z,43.53
2022-12-18T19:09:54.113Z,41.42
2022-12-18T19:12:14.504Z,44.65
2022-12-18T19:14:17.509Z,43.33
2022-12-18T19:16:21.544Z,47.30
2022-12-18T19:18:27.070Z,46.20
2022-12-18T19:20:29.746Z,45.17
2022-12-18T19:22:32.373Z,44.88
2022-12-18T19:24:34.993Z,45.25
2022-12-18T19:26:37.613Z,44.15
2022-12-18T19:28:40.834Z,43.90
2022-12-18T19:30:44.190Z,43.03
2022-12-18T19:32:48.112Z,43.92
2022-12-18T19:34:50.727Z,41.08
2022-12-18T19:36:59.446Z,43.53
2022-12-18T19:39:08.025Z,41.53
2022-12-18T19:41:10.674Z,41.30
2022-12-18T19:43:14.509Z,41.00
2022-12-18T19:45:17.413Z,40.97
2022-12-18T19:47:20.018Z,40.70
2022-12-18T19:49:23.915Z,40.95
2022-12-18T19:51:29.228Z,40.30
2022-12-18T19:53:32.004Z,38.42
2022-12-18T19:55:34.622Z,37.90
2022-12-18T19:57:37.208Z,39.22
2022-12-18T19:59:39.799Z,40.42
2022-12-18T20:01:43.368Z,39.50
2022-12-18T20:03:48.012Z,38.20
2022-12-18T20:05:56.674Z,40.15
2022-12-18T20:07:59.270Z,39.10
2022-12-18T20:10:08.675Z,42.78
2022-12-18T20:12:11.711Z,42.10
2022-12-18T20:14:20.635Z,42.30
2022-12-18T20:16:26.273Z,43.58
2022-12-18T20:18:29.528Z,41.53
2022-12-18T20:20:32.126Z,41.25
2022-12-18T20:22:36.462Z,45.10
2022-12-18T20:24:39.077Z,47.13
2022-12-18T20:26:41.751Z,47.80
2022-12-18T20:28:44.509Z,49.15
2022-12-18T20:30:47.353Z,45.72
2022-12-18T20:32:49.931Z,51.45
2022-12-18T20:34:52.477Z,49.50
2022-12-18T20:36:55.826Z,49.40
2022-12-18T20:39:01.624Z,53.03
2022-12-18T20:41:09.762Z,51.22
2022-12-18T20:43:16.969Z,50.53
2022-12-18T20:45:20.197Z,49.05
2022-12-18T20:47:22.827Z,49.65
2022-12-18T20:49:26.596Z,51.97
2022-12-18T20:51:30.555Z,55.13
2022-12-18T20:53:33.658Z,51.45
2022-12-18T20:55:42.396Z,49.00
2022-12-18T20:57:45.048Z,51.28
2022-12-18T20:59:48.470Z,52.85
2022-12-18T21:01:52.091Z,50.92
2022-12-18T21:03:55.053Z,51.28
2022-12-18T21:05:57.644Z,54.75
2022-12-18T21:08:00.302Z,53.03
2022-12-18T21:10:07.377Z,53.00
2022-12-18T21:12:40.664Z,50.95
2022-12-18T21:14:47.972Z,51.67
2022-12-18T21:16:53.252Z,53.58
2022-12-18T21:18:55.973Z,48.20
2022-12-18T21:20:59.134Z,48.38
2022-12-18T21:23:15.576Z,48.20
2022-12-18T21:25:19.364Z,45.28
2022-12-18T21:27:23.367Z,49.50
2022-12-18T21:29:27.218Z,47.25
2022-12-18T21:31:31.652Z,47.38
2022-12-18T21:33:34.354Z,48.92
2022-12-18T21:35:37.154Z,48.92
2022-12-18T21:37:39.852Z,49.45
2022-12-18T21:39:42.553Z,49.53
2022-12-18T21:42:03.414Z,48.05
2022-12-18T21:44:07.581Z,47.77
2022-12-18T21:46:12.505Z,43.78
2022-12-18T21:48:15.160Z,44.95
2022-12-18T21:50:18.024Z,44.85
2022-12-18T21:52:22.184Z,44.72
2022-12-18T21:54:35.497Z,44.75
2022-12-18T21:56:48.741Z,45.28
2022-12-18T21:58:56.824Z,43.90
2022-12-18T22:01:01.389Z,42.28
2022-12-18T22:03:18.602Z,42.53
2022-12-18T22:05:21.763Z,42.72
2022-12-18T22:07:24.406Z,42.63
2022-12-18T22:09:27.274Z,41.28
2022-12-18T22:11:29.920Z,43.50
2022-12-18T22:13:32.505Z,43.85
2022-12-18T22:15:35.245Z,41.75
2022-12-18T22:17:39.336Z,41.92
2022-12-18T22:19:43.111Z,40.75
2022-12-18T22:21:49.640Z,40.83
2022-12-18T22:23:56.997Z,41.47
2022-12-18T22:25:59.809Z,41.03
2022-12-18T22:28:19.871Z,40.25
2022-12-18T22:30:22.537Z,43.17
2022-12-18T22:32:31.377Z,41.75
2022-12-18T22:34:36.906Z,40.38
2022-12-18T22:36:41.777Z,43.17
2022-12-18T22:38:44.587Z,41.17
2022-12-18T22:40:47.192Z,42.45
2022-12-18T22:42:49.901Z,40.70
2022-12-18T22:44:53.992Z,39.20
2022-12-18T22:47:03.540Z,41.67
2022-12-18T22:49:13.466Z,42.00
2022-12-18T22:51:21.815Z,40.00
2022-12-18T22:53:24.529Z,41.95
2022-12-18T22:55:27.141Z,43.28
2022-12-18T22:57:29.718Z,43.28
2022-12-18T22:59:32.288Z,41.83
2022-12-18T23:01:35.025Z,41.22
2022-12-18T23:03:39.216Z,41.95
2022-12-18T23:05:41.948Z,41.08
2022-12-18T23:07:45.927Z,39.38
2022-12-18T23:09:49.373Z,39.25
2022-12-18T23:11:53.340Z,38.40
2022-12-18T23:13:56.744Z,38.75
2022-12-18T23:16:01.521Z,37.35
2022-12-18T23:18:04.164Z,40.08
2022-12-18T23:20:07.890Z,40.67
2022-12-18T23:22:11.938Z,39.22
2022-12-18T23:24:16.445Z,37.67
2022-12-18T23:26:21.102Z,37.83
2022-12-18T23:28:23.757Z,38.72
2022-12-18T23:30:27.887Z,39.55
2022-12-18T23:32:30.510Z,39.10
2022-12-18T23:34:35.706Z,40.30
2022-12-18T23:36:45.715Z,38.22
2022-12-18T23:38:51.086Z,37.80
2022-12-18T23:40:56.504Z,39.72
2022-12-18T23:43:00.546Z,37.03
2022-12-18T23:45:03.904Z,39.42
2022-12-18T23:47:19.223Z,40.40
2022-12-18T23:49:21.807Z,38.63
2022-12-18T23:51:25.687Z,39.53
2022-12-18T23:53:28.370Z,37.40
2022-12-18T23:55:31.056Z,39.25
2022-12-18T23:57:34.978Z,40.13
2022-12-18T23:59:37.590Z,37.28
